createdAt,value
2018-12-29T00:00:19.662Z,61.60
2018-12-29T00:05:37.405Z,61.50
2018-12-29T00:06:41.517Z,61.50
2018-12-29T00:10:56.326Z,61.70
2018-12-29T00:13:03.853Z,61.50
2018-12-29T00:14:07.996Z,61.40
2018-12-29T00:16:15.533Z,61.50
2018-12-29T00:17:19.694Z,61.50
2018-12-29T00:18:23.849Z,61.50
2018-12-29T00:19:27.988Z,61.50
2018-12-29T00:20:32.141Z,61.50
2018-12-29T00:24:46.413Z,61.60
2018-12-29T00:29:00.676Z,61.70
2018-12-29T00:32:11.798Z,61.20
2018-12-29T00:35:22.689Z,61.40
2018-12-29T00:37:30.222Z,61.60
2018-12-29T00:38:34.381Z,61.50
2018-12-29T00:40:41.913Z,61.50
2018-12-29T00:41:46.080Z,61.40
2018-12-29T00:45:02.411Z,61.50
2018-12-29T00:47:07.040Z,61.50
2018-12-29T00:50:17.925Z,61.50
2018-12-29T00:53:29.907Z,62.00
2018-12-29T00:54:34.015Z,61.20
2018-12-29T00:58:48.293Z,61.20
2018-12-29T01:00:55.823Z,61.30
2018-12-29T01:06:14.718Z,61.20
2018-12-29T01:10:28.990Z,61.30
2018-12-29T01:11:33.192Z,61.40
2018-12-29T01:13:40.922Z,61.90
2018-12-29T01:14:45.077Z,61.60
2018-12-29T01:17:55.977Z,61.50
2018-12-29T01:20:03.904Z,62.20
2018-12-29T01:21:08.065Z,61.70
2018-12-29T01:25:22.328Z,61.40
2018-12-29T01:26:26.480Z,61.50
2018-12-29T01:27:31.557Z,61.10
2018-12-29T01:31:45.850Z,61.60
2018-12-29T01:33:53.623Z,61.60
2018-12-29T01:34:57.757Z,61.60
2018-12-29T01:37:05.281Z,61.40
2018-12-29T01:39:12.832Z,61.60
2018-12-29T01:40:16.939Z,61.40
2018-12-29T01:42:25.010Z,61.60
2018-12-29T01:43:29.170Z,61.50
2018-12-29T01:46:40.300Z,61.60
2018-12-29T01:49:51.202Z,61.30
2018-12-29T01:54:05.471Z,61.30
2018-12-29T01:56:12.997Z,61.70
2018-12-29T01:57:17.148Z,61.20
2018-12-29T01:58:21.296Z,61.30
2018-12-29T01:59:25.458Z,61.30
2018-12-29T02:00:29.617Z,61.30
2018-12-29T02:01:33.761Z,61.20
2018-12-29T02:02:37.918Z,61.60
2018-12-29T02:03:42.070Z,61.60
2018-12-29T02:05:49.592Z,61.30
2018-12-29T02:07:57.117Z,61.30
2018-12-29T02:11:08.015Z,61.30
2018-12-29T02:13:15.527Z,61.40
2018-12-29T02:14:19.686Z,61.30
2018-12-29T02:16:27.213Z,61.40
2018-12-29T02:17:31.375Z,61.30
2018-12-29T02:18:35.515Z,61.20
2018-12-29T02:19:39.690Z,62.20
2018-12-29T02:20:43.837Z,61.60
2018-12-29T02:21:47.990Z,61.70
2018-12-29T02:23:55.504Z,61.50
2018-12-29T02:26:03.035Z,61.60
2018-12-29T02:33:27.666Z,61.20
2018-12-29T02:35:35.201Z,61.40
2018-12-29T02:37:42.730Z,61.60
2018-12-29T02:38:46.875Z,61.60
2018-12-29T02:39:51.027Z,61.30
2018-12-29T02:43:01.916Z,61.40
2018-12-29T02:46:12.825Z,61.40
2018-12-29T02:47:16.964Z,61.30
2018-12-29T02:49:24.502Z,61.50
2018-12-29T02:50:28.656Z,61.50
2018-12-29T02:52:36.170Z,61.60
2018-12-29T02:53:41.477Z,61.60
2018-12-29T02:54:45.637Z,61.90
2018-12-29T02:56:53.156Z,61.80
2018-12-29T02:59:00.690Z,62.20
2018-12-29T03:01:08.566Z,61.40
2018-12-29T03:03:16.153Z,61.50
2018-12-29T03:06:27.294Z,61.90
2018-12-29T03:07:31.455Z,61.30
2018-12-29T03:09:38.982Z,61.40
2018-12-29T03:10:43.157Z,61.30
2018-12-29T03:16:01.057Z,62.50
2018-12-29T03:17:05.221Z,62.50
2018-12-29T03:18:09.364Z,62.00
2018-12-29T03:19:13.530Z,61.90
2018-12-29T03:20:17.664Z,62.20
2018-12-29T03:22:25.197Z,62.20
2018-12-29T03:27:42.837Z,62.10
2018-12-29T03:29:50.356Z,62.10
2018-12-29T03:30:54.501Z,62.10
2018-12-29T03:33:02.031Z,62.20
2018-12-29T03:42:33.419Z,62.30
2018-12-29T03:44:40.945Z,62.30
2018-12-29T03:45:49.149Z,62.20
2018-12-29T03:46:51.221Z,62.30
2018-12-29T03:48:58.765Z,62.60
2018-12-29T03:50:02.917Z,62.20
2018-12-29T03:54:17.441Z,62.40
2018-12-29T03:57:28.353Z,62.40
2018-12-29T03:59:35.865Z,62.80
2018-12-29T04:00:40.029Z,62.60
2018-12-29T04:02:47.545Z,62.50
2018-12-29T04:03:51.703Z,62.50
2018-12-29T04:04:55.844Z,62.50
2018-12-29T04:06:00.006Z,62.50
2018-12-29T04:07:04.396Z,62.60
2018-12-29T04:10:26.551Z,62.70
2018-12-29T04:11:30.716Z,63.70
2018-12-29T04:14:42.580Z,62.80
2018-12-29T04:16:50.110Z,62.70
2018-12-29T04:21:04.382Z,62.90
2018-12-29T04:22:08.536Z,63.20
2018-12-29T04:23:12.690Z,63.00
2018-12-29T04:24:16.839Z,62.80
2018-12-29T04:25:20.997Z,63.60
2018-12-29T04:26:25.148Z,62.80
2018-12-29T04:28:32.672Z,62.70
2018-12-29T04:29:36.824Z,62.90
2018-12-29T04:31:48.200Z,62.80
2018-12-29T04:32:52.348Z,62.80
2018-12-29T04:37:06.630Z,62.50
2018-12-29T04:38:10.772Z,62.70
2018-12-29T04:40:18.292Z,62.80
2018-12-29T04:46:39.336Z,62.50
2018-12-29T04:48:46.862Z,62.40
2018-12-29T04:53:01.128Z,62.30
2018-12-29T04:57:15.430Z,62.30
2018-12-29T05:00:27.476Z,62.40
2018-12-29T05:01:31.636Z,62.40
2018-12-29T05:02:35.785Z,62.30
2018-12-29T05:05:46.679Z,62.40
2018-12-29T05:06:50.843Z,62.30
2018-12-29T05:07:54.985Z,62.30
2018-12-29T05:08:59.141Z,62.40
2018-12-29T05:13:14.680Z,62.30
2018-12-29T05:14:18.843Z,62.30
2018-12-29T05:15:22.997Z,62.20
2018-12-29T05:17:30.536Z,62.10
2018-12-29T05:20:41.672Z,62.00
2018-12-29T05:21:45.839Z,62.10
2018-12-29T05:22:49.974Z,62.20
2018-12-29T05:23:54.130Z,62.20
2018-12-29T05:27:05.042Z,62.10
2018-12-29T05:28:09.191Z,62.40
2018-12-29T05:29:13.326Z,62.40
2018-12-29T05:30:17.472Z,62.20
2018-12-29T05:33:28.368Z,62.30
2018-12-29T05:34:32.521Z,62.10
2018-12-29T05:35:36.672Z,61.90
2018-12-29T05:37:44.200Z,62.30
2018-12-29T05:38:48.357Z,61.90
2018-12-29T05:40:55.877Z,62.30
2018-12-29T05:44:06.782Z,62.10
2018-12-29T05:47:17.668Z,62.50
2018-12-29T05:49:25.197Z,61.80
2018-12-29T05:50:29.365Z,62.40
2018-12-29T05:54:43.634Z,62.90
2018-12-29T05:57:54.533Z,62.20
2018-12-29T06:00:03.078Z,62.30
2018-12-29T06:01:07.218Z,62.80
2018-12-29T06:05:21.533Z,63.00
2018-12-29T06:06:26.811Z,63.00
2018-12-29T06:07:31.988Z,63.20
2018-12-29T06:08:36.136Z,63.20
2018-12-29T06:09:40.283Z,63.10
2018-12-29T06:10:44.445Z,62.90
2018-12-29T06:11:48.589Z,63.00
2018-12-29T06:12:52.729Z,63.20
2018-12-29T06:13:56.891Z,63.10
2018-12-29T06:16:04.404Z,62.80
2018-12-29T06:17:08.556Z,63.00
2018-12-29T06:18:12.704Z,63.20
2018-12-29T06:19:16.894Z,63.20
2018-12-29T06:23:31.151Z,63.60
2018-12-29T06:24:35.314Z,63.30
2018-12-29T06:25:39.461Z,63.40
2018-12-29T06:26:43.627Z,63.40
2018-12-29T06:29:54.517Z,64.00
2018-12-29T06:30:58.665Z,63.30
2018-12-29T06:33:06.184Z,63.30
2018-12-29T06:35:13.721Z,63.40
2018-12-29T06:37:21.246Z,63.80
2018-12-29T06:39:28.775Z,63.70
2018-12-29T06:40:32.928Z,63.90
2018-12-29T06:41:37.080Z,63.30
2018-12-29T06:42:41.228Z,63.40
2018-12-29T06:44:48.747Z,63.80
2018-12-29T06:45:52.892Z,63.60
2018-12-29T06:46:57.057Z,63.30
2018-12-29T06:48:01.213Z,63.10
2018-12-29T06:49:05.362Z,63.90
2018-12-29T06:50:09.505Z,63.40
2018-12-29T06:53:20.432Z,63.20
2018-12-29T06:55:27.944Z,63.60
2018-12-29T06:57:35.464Z,64.00
2018-12-29T06:58:39.625Z,63.20
2018-12-29T06:59:43.852Z,63.40
2018-12-29T07:00:47.991Z,63.80
2018-12-29T07:02:56.547Z,64.20
2018-12-29T07:05:04.176Z,63.90
2018-12-29T07:09:18.439Z,64.60
2018-12-29T07:10:22.588Z,63.90
2018-12-29T07:16:43.614Z,64.00
2018-12-29T07:17:47.764Z,64.50
2018-12-29T07:18:51.904Z,64.40
2018-12-29T07:19:56.051Z,64.10
2018-12-29T07:23:06.953Z,64.40
2018-12-29T07:24:11.129Z,65.10
2018-12-29T07:26:18.648Z,64.80
2018-12-29T07:27:22.821Z,64.70
2018-12-29T07:28:26.984Z,64.60
2018-12-29T07:30:34.517Z,65.70
2018-12-29T07:31:38.663Z,65.20
2018-12-29T07:32:42.825Z,64.80
2018-12-29T07:40:08.724Z,64.60
2018-12-29T07:41:12.887Z,64.50
2018-12-29T07:42:17.041Z,64.40
2018-12-29T07:44:24.556Z,64.90
2018-12-29T07:45:28.713Z,64.60
2018-12-29T07:47:36.247Z,64.30
2018-12-29T07:50:47.131Z,64.80
2018-12-29T07:52:54.651Z,64.70
2018-12-29T08:01:22.437Z,64.50
2018-12-29T08:02:26.598Z,64.30
2018-12-29T08:11:57.741Z,64.60
2018-12-29T08:18:18.748Z,64.30
2018-12-29T08:19:22.936Z,64.30
2018-12-29T08:22:33.842Z,64.10
2018-12-29T08:26:48.105Z,63.90
2018-12-29T08:27:52.248Z,63.90
2018-12-29T08:28:56.400Z,63.60
2018-12-29T08:30:00.573Z,63.80
2018-12-29T08:32:08.150Z,63.70
2018-12-29T08:36:22.420Z,63.80
2018-12-29T08:37:26.583Z,63.10
2018-12-29T08:39:34.354Z,62.90
2018-12-29T08:41:42.557Z,62.50
2018-12-29T08:48:03.568Z,62.50
2018-12-29T08:49:07.737Z,62.70
2018-12-29T08:50:13.288Z,62.40
2018-12-29T08:51:17.917Z,62.50
2018-12-29T08:53:25.433Z,62.50
2018-12-29T08:57:39.713Z,62.40
2018-12-29T08:59:48.285Z,62.30
2018-12-29T09:02:59.255Z,62.50
2018-12-29T09:06:10.165Z,63.00
2018-12-29T09:07:14.308Z,62.80
2018-12-29T09:08:18.488Z,62.90
2018-12-29T09:10:26.012Z,63.00
2018-12-29T09:11:30.240Z,63.00
2018-12-29T09:12:34.389Z,63.10
2018-12-29T09:13:38.544Z,63.10
2018-12-29T09:14:42.726Z,63.10
2018-12-29T09:15:47.095Z,63.00
2018-12-29T09:18:57.991Z,63.20
2018-12-29T09:20:02.140Z,63.20
2018-12-29T09:23:15.165Z,63.30
2018-12-29T09:25:22.697Z,63.40
2018-12-29T09:28:33.608Z,63.40
2018-12-29T09:29:37.753Z,63.40
2018-12-29T09:33:53.040Z,63.50
2018-12-29T09:36:00.581Z,63.10
2018-12-29T09:40:15.600Z,62.60
2018-12-29T09:41:19.761Z,62.90
2018-12-29T09:42:23.907Z,62.90
2018-12-29T09:43:28.056Z,63.00
2018-12-29T09:44:32.215Z,63.00
2018-12-29T09:48:46.485Z,63.20
2018-12-29T09:49:50.645Z,63.00
2018-12-29T09:54:06.961Z,63.10
2018-12-29T09:55:11.121Z,63.00
2018-12-29T09:59:25.645Z,62.90
2018-12-29T10:00:29.814Z,63.00
2018-12-29T10:01:33.960Z,62.90
2018-12-29T10:03:42.509Z,63.00
2018-12-29T10:04:46.652Z,62.60
2018-12-29T10:05:50.812Z,62.90
2018-12-29T10:06:54.965Z,62.90
2018-12-29T10:07:59.104Z,62.90
2018-12-29T10:10:08.139Z,62.70
2018-12-29T10:12:15.937Z,62.70
2018-12-29T10:16:30.229Z,63.40
2018-12-29T10:17:34.372Z,63.00
2018-12-29T10:18:38.525Z,62.70
2018-12-29T10:19:42.682Z,62.60
2018-12-29T10:21:50.200Z,62.60
2018-12-29T10:26:04.481Z,62.60
2018-12-29T10:30:18.760Z,61.80
2018-12-29T10:31:23.749Z,61.70
2018-12-29T10:35:38.039Z,61.40
2018-12-29T10:36:42.188Z,61.20
2018-12-29T10:38:49.981Z,61.40
2018-12-29T10:39:54.152Z,61.60
2018-12-29T10:40:59.086Z,61.40
2018-12-29T10:42:03.256Z,61.50
2018-12-29T10:47:21.190Z,61.10
2018-12-29T10:48:25.348Z,61.00
2018-12-29T10:50:32.879Z,60.50
2018-12-29T10:52:40.417Z,60.70
2018-12-29T10:54:47.948Z,60.60
2018-12-29T10:57:58.856Z,61.00
2018-12-29T10:59:03.029Z,61.30
2018-12-29T11:02:15.473Z,61.20
2018-12-29T11:03:19.624Z,61.30
2018-12-29T11:05:27.169Z,61.90
2018-12-29T11:06:31.341Z,61.90
2018-12-29T11:13:57.617Z,61.80
2018-12-29T11:15:01.781Z,61.90
2018-12-29T11:16:06.065Z,62.10
2018-12-29T11:18:14.620Z,62.50
2018-12-29T11:20:22.161Z,62.50
2018-12-29T11:24:37.376Z,62.00
2018-12-29T11:25:41.955Z,62.00
2018-12-29T11:26:46.103Z,61.90
2018-12-29T11:28:53.640Z,61.30
2018-12-29T11:31:01.182Z,62.10
2018-12-29T11:32:05.353Z,62.10
2018-12-29T11:34:12.892Z,61.70
2018-12-29T11:38:27.970Z,62.00
2018-12-29T11:40:35.495Z,62.40
2018-12-29T11:41:39.880Z,62.70
2018-12-29T11:42:44.968Z,62.40
2018-12-29T11:44:52.487Z,62.70
2018-12-29T11:47:00.853Z,63.00
2018-12-29T11:48:05.030Z,62.90
2018-12-29T11:50:12.568Z,63.10
2018-12-29T11:52:20.933Z,63.40
2018-12-29T11:56:35.488Z,63.90
2018-12-29T11:57:39.970Z,63.70
2018-12-29T11:58:44.387Z,63.40
2018-12-29T12:01:55.291Z,63.20
2018-12-29T12:02:59.683Z,63.20
2018-12-29T12:04:04.305Z,63.40
2018-12-29T12:09:22.221Z,63.60
2018-12-29T12:13:36.770Z,63.70
2018-12-29T12:14:41.196Z,63.60
2018-12-29T12:15:45.593Z,63.80
2018-12-29T12:17:57.501Z,64.00
2018-12-29T12:21:08.233Z,63.90
2018-12-29T12:25:22.773Z,63.90
2018-12-29T12:26:27.896Z,63.60
2018-12-29T12:27:32.296Z,64.60
2018-12-29T12:28:36.897Z,63.90
2018-12-29T12:29:41.314Z,63.90
2018-12-29T12:32:52.492Z,63.80
2018-12-29T12:37:07.036Z,63.70
2018-12-29T12:39:14.816Z,63.90
2018-12-29T12:41:22.601Z,63.80
2018-12-29T12:42:27.400Z,63.90
2018-12-29T12:44:35.345Z,63.80
2018-12-29T12:45:39.778Z,63.90
2018-12-29T12:46:44.180Z,64.10
2018-12-29T12:52:02.339Z,63.80
2018-12-29T12:53:06.740Z,63.90
2018-12-29T12:55:14.816Z,63.90
2018-12-29T12:57:22.616Z,64.00
2018-12-29T13:00:34.080Z,64.00
2018-12-29T13:02:42.248Z,64.00
2018-12-29T13:06:56.810Z,64.10
2018-12-29T13:08:01.208Z,64.00
2018-12-29T13:12:16.563Z,64.20
2018-12-29T13:14:24.333Z,65.20
2018-12-29T13:16:32.104Z,65.20
2018-12-29T13:18:39.892Z,65.30
2018-12-29T13:19:44.285Z,65.50
2018-12-29T13:20:48.704Z,65.40
2018-12-29T13:26:06.597Z,64.30
2018-12-29T13:27:10.988Z,65.30
2018-12-29T13:28:15.162Z,65.40
2018-12-29T13:30:22.919Z,65.20
2018-12-29T13:32:31.115Z,65.30
2018-12-29T13:35:42.281Z,65.40
2018-12-29T13:39:57.572Z,65.50
2018-12-29T13:41:01.978Z,65.50
2018-12-29T13:42:06.363Z,65.70
2018-12-29T13:43:10.797Z,65.60
2018-12-29T13:46:23.181Z,65.70
2018-12-29T13:48:30.944Z,65.70
2018-12-29T13:49:35.462Z,64.90
2018-12-29T13:52:46.613Z,65.80
2018-12-29T13:53:50.756Z,65.70
2018-12-29T13:55:58.516Z,65.90
2018-12-29T13:57:02.924Z,65.80
2018-12-29T14:02:21.232Z,66.00
2018-12-29T14:06:35.499Z,66.00
2018-12-29T14:07:39.649Z,66.00
2018-12-29T14:08:44.058Z,66.00
2018-12-29T14:09:48.204Z,66.20
2018-12-29T14:10:52.601Z,67.60
2018-12-29T14:11:57.078Z,66.50
2018-12-29T14:13:01.684Z,66.50
2018-12-29T14:16:12.831Z,66.80
2018-12-29T14:18:28.019Z,66.60
2018-12-29T14:19:26.748Z,66.90
2018-12-29T14:20:31.144Z,67.00
2018-12-29T14:21:35.545Z,67.00
2018-12-29T14:24:46.701Z,67.20
2018-12-29T14:27:57.847Z,66.90
2018-12-29T14:29:02.273Z,67.80
2018-12-29T14:32:13.200Z,67.50
2018-12-29T14:33:18.301Z,67.80
2018-12-29T14:34:22.901Z,67.60
2018-12-29T14:39:40.795Z,66.10
2018-12-29T14:40:45.192Z,67.10
2018-12-29T14:43:56.798Z,66.60
2018-12-29T14:46:05.460Z,67.70
2018-12-29T14:47:09.869Z,66.60
2018-12-29T14:48:14.018Z,66.60
2018-12-29T14:49:18.417Z,66.60
2018-12-29T14:51:26.206Z,66.70
2018-12-29T14:52:30.617Z,66.60
2018-12-29T14:55:41.537Z,66.50
2018-12-29T14:56:45.932Z,66.80
2018-12-29T14:57:50.328Z,66.90
2018-12-29T14:59:58.103Z,67.40
2018-12-29T15:02:05.897Z,67.30
2018-12-29T15:04:13.692Z,66.70
2018-12-29T15:05:19.168Z,66.60
2018-12-29T15:07:26.688Z,66.80
2018-12-29T15:09:34.473Z,66.70
2018-12-29T15:11:42.264Z,66.60
2018-12-29T15:12:46.686Z,67.20
2018-12-29T15:14:54.785Z,67.00
2018-12-29T15:19:09.321Z,68.20
2018-12-29T15:20:13.744Z,68.10
2018-12-29T15:26:35.027Z,68.60
2018-12-29T15:28:42.785Z,68.60
2018-12-29T15:29:47.176Z,69.20
2018-12-29T15:35:05.697Z,68.70
2018-12-29T15:37:13.480Z,69.10
2018-12-29T15:38:17.880Z,68.90
2018-12-29T15:40:25.945Z,69.30
2018-12-29T15:41:30.340Z,69.40
2018-12-29T15:42:35.059Z,69.50
2018-12-29T15:43:39.556Z,70.00
2018-12-29T15:44:43.970Z,69.70
2018-12-29T15:47:55.141Z,69.80
2018-12-29T15:50:03.127Z,69.70
2018-12-29T15:51:07.537Z,69.80
2018-12-29T15:52:11.943Z,70.00
2018-12-29T15:53:16.666Z,70.10
2018-12-29T15:57:31.189Z,70.30
2018-12-29T16:00:42.331Z,69.50
2018-12-29T16:02:50.416Z,70.60
2018-12-29T16:04:58.398Z,69.40
2018-12-29T16:06:02.815Z,70.40
2018-12-29T16:07:07.207Z,69.20
2018-12-29T16:08:13.594Z,69.00
2018-12-29T16:15:38.258Z,70.70
2018-12-29T16:21:59.555Z,71.00
2018-12-29T16:24:07.359Z,70.50
2018-12-29T16:25:11.771Z,69.70
2018-12-29T16:27:19.572Z,69.50
2018-12-29T16:30:30.753Z,69.40
2018-12-29T16:31:35.468Z,69.40
2018-12-29T16:33:43.665Z,69.00
2018-12-29T16:34:48.381Z,69.20
2018-12-29T16:35:52.787Z,69.70
2018-12-29T16:36:57.203Z,69.40
2018-12-29T16:38:01.617Z,69.30
2018-12-29T16:39:06.075Z,69.30
2018-12-29T16:40:10.463Z,69.30
2018-12-29T16:42:18.263Z,69.30
2018-12-29T16:44:26.041Z,69.00
2018-12-29T16:49:44.958Z,69.10
2018-12-29T16:51:52.752Z,69.00
2018-12-29T16:54:00.535Z,68.80
2018-12-29T16:58:15.368Z,68.90
2018-12-29T16:59:19.790Z,69.10
2018-12-29T17:01:30.180Z,68.80
2018-12-29T17:02:34.744Z,68.90
2018-12-29T17:03:39.542Z,68.70
2018-12-29T17:06:50.757Z,68.70
2018-12-29T17:08:58.648Z,68.50
2018-12-29T17:10:03.873Z,68.40
2018-12-29T17:11:08.273Z,68.50
2018-12-29T17:14:20.481Z,68.40
2018-12-29T17:15:24.701Z,68.30
2018-12-29T17:18:36.280Z,68.30
2018-12-29T17:23:55.565Z,68.00
2018-12-29T17:29:15.137Z,67.50
2018-12-29T17:30:19.552Z,67.40
2018-12-29T17:31:24.050Z,67.40
2018-12-29T17:33:32.164Z,67.40
2018-12-29T17:34:36.580Z,67.30
2018-12-29T17:35:41.003Z,67.30
2018-12-29T17:38:53.955Z,67.30
2018-12-29T17:42:05.733Z,67.60
2018-12-29T17:44:13.525Z,67.00
2018-12-29T17:49:31.464Z,66.60
2018-12-29T17:51:39.551Z,66.50
2018-12-29T17:56:58.568Z,65.90
2018-12-29T18:00:09.724Z,65.40
2018-12-29T18:02:20.998Z,65.10
2018-12-29T18:03:25.401Z,65.10
2018-12-29T18:05:33.493Z,65.60
2018-12-29T18:06:37.907Z,65.90
2018-12-29T18:07:42.308Z,65.80
2018-12-29T18:10:53.720Z,65.40
2018-12-29T18:11:58.525Z,65.40
2018-12-29T18:14:06.318Z,65.00
2018-12-29T18:20:28.202Z,64.40
2018-12-29T18:22:35.973Z,63.60
2018-12-29T18:23:40.813Z,63.70
2018-12-29T18:27:56.783Z,64.00
2018-12-29T18:30:05.274Z,63.80
2018-12-29T18:31:09.687Z,63.60
2018-12-29T18:32:14.087Z,63.90
2018-12-29T18:33:18.528Z,64.00
2018-12-29T18:38:36.420Z,63.30
2018-12-29T18:40:45.857Z,63.90
2018-12-29T18:43:57.072Z,63.20
2018-12-29T18:45:02.069Z,63.70
2018-12-29T18:46:06.517Z,62.90
2018-12-29T18:54:36.091Z,62.50
2018-12-29T18:55:40.504Z,63.00
2018-12-29T18:56:45.703Z,63.40
2018-12-29T18:58:54.106Z,63.00
2018-12-29T19:01:01.877Z,63.40
2018-12-29T19:02:06.295Z,63.20
2018-12-29T19:04:14.445Z,63.20
2018-12-29T19:05:18.873Z,63.20
2018-12-29T19:06:23.381Z,62.80
2018-12-29T19:07:27.779Z,63.00
2018-12-29T19:11:43.244Z,62.40
2018-12-29T19:12:47.948Z,62.60
2018-12-29T19:13:52.660Z,62.90
2018-12-29T19:18:07.241Z,62.90
2018-12-29T19:19:11.952Z,62.20
2018-12-29T19:23:26.465Z,62.20
2018-12-29T19:25:34.678Z,62.30
2018-12-29T19:26:40.094Z,62.20
2018-12-29T19:29:51.234Z,62.20
2018-12-29T19:33:02.402Z,62.20
2018-12-29T19:35:10.414Z,62.20
2018-12-29T19:37:18.196Z,62.20
2018-12-29T19:40:29.384Z,62.00
2018-12-29T19:43:40.913Z,62.20
2018-12-29T19:44:45.704Z,62.20
2018-12-29T19:45:50.444Z,62.20
2018-12-29T19:49:01.595Z,62.30
2018-12-29T19:50:06.431Z,62.20
2018-12-29T19:51:10.844Z,62.00
2018-12-29T19:52:16.058Z,61.80
2018-12-29T19:53:20.458Z,62.00
2018-12-29T19:56:31.375Z,62.00
2018-12-29T19:57:36.149Z,62.20
2018-12-29T19:58:40.548Z,62.20
2018-12-29T19:59:44.978Z,62.30
2018-12-29T20:04:14.945Z,62.10
2018-12-29T20:07:25.833Z,62.00
2018-12-29T20:10:36.989Z,62.20
2018-12-29T20:12:46.462Z,61.70
2018-12-29T20:21:14.481Z,61.90
2018-12-29T20:23:23.477Z,62.20
2018-12-29T20:27:37.980Z,62.00
2018-12-29T20:28:42.425Z,61.90
2018-12-29T20:29:46.940Z,62.10
2018-12-29T20:34:02.776Z,61.90
2018-12-29T20:36:10.607Z,61.90
2018-12-29T20:37:14.804Z,61.80
2018-12-29T20:38:18.954Z,61.70
2018-12-29T20:40:26.471Z,62.00
2018-12-29T20:42:34.241Z,61.80
2018-12-29T20:43:38.649Z,61.90
2018-12-29T20:47:53.169Z,61.80
2018-12-29T20:50:09.279Z,61.70
2018-12-29T20:52:11.701Z,62.20
2018-12-29T20:53:16.168Z,61.70
2018-12-29T20:55:23.932Z,62.20
2018-12-29T20:56:28.324Z,62.10
2018-12-29T20:58:36.081Z,62.00
2018-12-29T20:59:40.468Z,62.20
2018-12-29T21:01:48.244Z,62.10
2018-12-29T21:02:52.640Z,62.20
2018-12-29T21:03:57.052Z,62.10
2018-12-29T21:05:01.485Z,62.10
2018-12-29T21:08:14.477Z,62.10
2018-12-29T21:10:22.650Z,62.10
2018-12-29T21:11:27.051Z,62.10
2018-12-29T21:15:41.566Z,61.80
2018-12-29T21:18:52.694Z,62.20
2018-12-29T21:21:00.516Z,61.80
2018-12-29T21:22:04.888Z,62.00
2018-12-29T21:23:09.388Z,61.60
2018-12-29T21:24:14.187Z,62.70
2018-12-29T21:26:21.941Z,61.60
2018-12-29T21:27:26.328Z,61.70
2018-12-29T21:28:30.724Z,61.70
2018-12-29T21:29:35.112Z,62.10
2018-12-29T21:30:39.516Z,61.90
2018-12-29T21:34:54.021Z,61.80
2018-12-29T21:39:08.279Z,61.70
2018-12-29T21:41:16.479Z,61.90
2018-12-29T21:43:24.235Z,61.60
2018-12-29T21:44:28.624Z,61.60
2018-12-29T21:45:33.028Z,61.60
2018-12-29T21:47:41.716Z,61.50
2018-12-29T21:50:52.858Z,61.80
2018-12-29T21:54:04.022Z,61.90
2018-12-29T21:55:08.436Z,61.80
2018-12-29T21:58:19.579Z,62.00
2018-12-29T22:00:27.355Z,61.90
2018-12-29T22:01:31.747Z,62.20
2018-12-29T22:03:39.538Z,61.80
2018-12-29T22:05:47.315Z,61.80
2018-12-29T22:08:58.460Z,61.50
2018-12-29T22:10:03.279Z,61.50
2018-12-29T22:11:07.679Z,61.40
2018-12-29T22:13:18.263Z,61.70
2018-12-29T22:14:22.592Z,61.60
2018-12-29T22:16:31.382Z,61.40
2018-12-29T22:17:36.064Z,61.40
2018-12-29T22:18:40.456Z,61.40
2018-12-29T22:19:44.852Z,61.40
2018-12-29T22:21:52.628Z,61.30
2018-12-29T22:22:57.020Z,61.40
2018-12-29T22:24:01.429Z,61.30
2018-12-29T22:26:09.201Z,61.30
2018-12-29T22:27:13.606Z,61.40
2018-12-29T22:28:18.005Z,61.40
2018-12-29T22:29:22.391Z,61.60
2018-12-29T22:32:33.707Z,61.40
2018-12-29T22:33:38.102Z,61.60
2018-12-29T22:35:46.832Z,61.60
2018-12-29T22:37:54.601Z,61.70
2018-12-29T22:38:59.161Z,61.60
2018-12-29T22:40:04.446Z,61.80
2018-12-29T22:41:08.853Z,61.60
2018-12-29T22:45:23.408Z,61.50
2018-12-29T22:46:27.815Z,61.70
2018-12-29T22:52:49.081Z,61.40
2018-12-29T22:56:00.246Z,61.40
2018-12-29T22:57:04.648Z,61.20
2018-12-29T22:58:09.048Z,61.20
2018-12-29T22:59:13.449Z,61.30
2018-12-29T23:03:28.381Z,61.00
2018-12-29T23:05:36.144Z,61.40
2018-12-29T23:07:43.915Z,60.90
2018-12-29T23:09:51.704Z,61.10
2018-12-29T23:10:56.996Z,61.10
2018-12-29T23:16:14.896Z,60.80
2018-12-29T23:17:19.321Z,60.90
2018-12-29T23:18:23.712Z,61.10
2018-12-29T23:22:38.246Z,60.70
2018-12-29T23:24:46.348Z,60.60
2018-12-29T23:27:57.560Z,60.40
2018-12-29T23:29:02.123Z,60.50
2018-12-29T23:30:08.199Z,60.50
2018-12-29T23:33:19.640Z,60.50
2018-12-29T23:34:24.041Z,60.60
2018-12-29T23:37:35.189Z,60.20
2018-12-29T23:38:39.814Z,60.40
2018-12-29T23:39:44.226Z,60.40
2018-12-29T23:43:58.732Z,60.30
2018-12-29T23:46:06.730Z,60.10
2018-12-29T23:48:15.537Z,60.40
2018-12-29T23:49:19.942Z,60.10
2018-12-29T23:51:27.721Z,59.70
2018-12-29T23:52:32.124Z,60.00
2018-12-29T23:53:36.508Z,60.10
2018-12-29T23:55:44.485Z,59.40
2018-12-29T23:58:55.711Z,60.10
